Weather History for KDVO - March, 2014

Change the Weather History Date:

Monday, March 17, 2014

  Actual Average (KAPC) Record (KAPC)
Temperature  
Mean Temperature 58 °F 52 °F  
Max Temperature 68 °F 64 °F 80 °F (2004)
Min Temperature 48 °F 40 °F 33 °F (2002)
Degree Days  
Heating Degree Days 7    
Month to date heating degree days  
Since 1 July heating degree days  
Cooling Degree Days 0    
Month to date cooling degree days  
Year to date cooling degree days  
Growing Degree Days 8 (Base 50)    
Moisture  
Dew Point 45 °F    
Average Humidity 66    
Maximum Humidity 94    
Minimum Humidity 43    
Precipitation  
Precipitation 0.05 in - 0.95 in (1993)
Month to date precipitation  
Year to date precipitation  
Sea Level Pressure  
Sea Level Pressure 30.10 in    
Wind  
Wind Speed 7 mph (WNW)    
Max Wind Speed 15 mph    
Max Gust Speed 22 mph    
Visibility 10 miles    
Events Rain    
T = Trace of Precipitation, MM = Missing Value Source: NWS Daily Summary

Daily Weather History Graph

Daily Weather History Graph

Search for Another Location

Airport or City:

Trip Planner

Search our weather history database for the weather conditions in past years. The results will help you decide how hot, cold, wet, or windy it might be!

Date:

Astronomy

Mar. 17, 2014 Rise Set
Actual Time 7:18 AM PDT 7:19 PM PDT
Civil Twilight 6:51 AM PDT 7:45 PM PDT
Nautical Twilight 6:21 AM PDT 8:16 PM PDT
Astronomical Twilight 5:50 AM PDT 8:47 PM PDT
Moon 8:40 PM PDT (3/17) 7:38 AM PDT (3/17)
Length of Visible Light 12h 53m
Length of Day
12h 01m
Full, 99% of the Moon is Illuminated
Mar 17
Full
Mar 23
Last Quarter
Mar 30
New
Apr 7
First Quarter
Apr 15
Full

Hourly Weather History & Observations

Time (PDT) Temp. Dew Point Humidity Pressure Visibility Wind Dir Wind Speed Gust Speed Precip Events Conditions
12:15 AM 55.4 °F 41.0 °F 58% 30.22 in 10.0 mi WNW 12.7 mph 17.3 mph N/A   Clear
12:35 AM 53.6 °F 41.0 °F 62% 30.22 in 10.0 mi WNW 8.1 mph - N/A   Clear
12:55 AM 53.6 °F 41.0 °F 62% 30.22 in 10.0 mi NW 8.1 mph - N/A   Clear
1:15 AM 53.6 °F 41.0 °F 62% 30.21 in 10.0 mi West 6.9 mph - N/A   Clear
1:35 AM 53.6 °F 41.0 °F 62% 30.21 in 10.0 mi WNW 8.1 mph - N/A   Clear
1:55 AM 55.4 °F 41.0 °F 58% 30.21 in 10.0 mi West 4.6 mph - N/A   Clear
2:15 AM 53.6 °F 41.0 °F 62% 30.20 in 10.0 mi WNW 6.9 mph - 0.05 in Rain Light Rain
2:35 AM 55.4 °F 41.0 °F 58% 30.20 in 10.0 mi West 13.8 mph 20.7 mph 0.05 in   Clear
2:55 AM 55.4 °F 42.8 °F 63% 30.20 in 10.0 mi West 15.0 mph 19.6 mph 0.05 in   Clear
3:15 AM 55.4 °F 44.6 °F 67% 30.19 in 10.0 mi West 13.8 mph 21.9 mph N/A   Clear
3:35 AM 53.6 °F 46.4 °F 77% 30.19 in 10.0 mi West 8.1 mph - N/A   Clear
3:55 AM 53.6 °F 46.4 °F 77% 30.18 in 10.0 mi West 13.8 mph 19.6 mph N/A   Clear
4:15 AM 53.6 °F 48.2 °F 82% 30.17 in 10.0 mi West 9.2 mph - N/A   Clear
4:35 AM 55.4 °F 48.2 °F 77% 30.18 in 10.0 mi West 4.6 mph - N/A   Scattered Clouds
4:55 AM 55.4 °F 48.2 °F 77% 30.17 in 10.0 mi North 3.5 mph - N/A   Mostly Cloudy
5:15 AM 53.6 °F 48.2 °F 82% 30.17 in 10.0 mi East 4.6 mph - N/A   Overcast
5:35 AM 53.6 °F 48.2 °F 82% 30.17 in 10.0 mi Calm Calm - N/A   Overcast
5:55 AM 51.8 °F 48.2 °F 88% 30.16 in 10.0 mi Calm Calm - N/A   Overcast
6:15 AM 51.8 °F 48.2 °F 88% 30.16 in 10.0 mi Calm Calm - N/A   Overcast
6:35 AM 53.6 °F 48.2 °F 82% 30.15 in 10.0 mi West 3.5 mph - N/A   Overcast
6:55 AM 53.6 °F 48.2 °F 82% 30.15 in 10.0 mi Calm Calm - N/A   Mostly Cloudy
7:15 AM 50.0 °F 48.2 °F 94% 30.14 in 10.0 mi SW 3.5 mph - N/A   Mostly Cloudy
7:35 AM 53.6 °F 48.2 °F 82% 30.13 in 10.0 mi WSW 11.5 mph - N/A   Clear
7:55 AM 51.8 °F 48.2 °F 88% 30.15 in 10.0 mi Calm Calm - N/A   Clear
8:15 AM 51.8 °F 48.2 °F 88% 30.15 in 10.0 mi SE 5.8 mph - N/A   Clear
8:35 AM 53.6 °F 48.2 °F 82% 30.16 in 10.0 mi South 4.6 mph - N/A   Clear
8:55 AM 53.6 °F 48.2 °F 82% 30.15 in 10.0 mi NE 3.5 mph - N/A   Clear
9:15 AM 55.4 °F 48.2 °F 77% 30.16 in 10.0 mi NNW 9.2 mph - N/A   Clear
9:35 AM 55.4 °F 46.4 °F 72% 30.16 in 10.0 mi NNW 8.1 mph - N/A   Clear
9:55 AM 57.2 °F 46.4 °F 67% 30.16 in 10.0 mi NNW 13.8 mph - N/A   Clear
10:15 AM 57.2 °F 46.4 °F 67% 30.16 in 10.0 mi NNW 6.9 mph - N/A   Partly Cloudy
10:35 AM 57.2 °F 44.6 °F 63% 30.16 in 10.0 mi NNW 9.2 mph - N/A   Partly Cloudy
10:55 AM 59.0 °F 44.6 °F 59% 30.16 in 10.0 mi NNW 9.2 mph - N/A   Clear
11:15 AM 59.0 °F 44.6 °F 59% 30.15 in 10.0 mi NW 6.9 mph - N/A   Clear
11:35 AM 60.8 °F 44.6 °F 55% 30.14 in 10.0 mi NW 6.9 mph - N/A   Clear
11:55 AM 60.8 °F 44.6 °F 55% 30.13 in 10.0 mi West 4.6 mph - N/A   Clear
12:15 PM 62.6 °F 44.6 °F 52% 30.13 in 10.0 mi NNW 3.5 mph - N/A   Clear
12:35 PM 62.6 °F 44.6 °F 52% 30.12 in 10.0 mi Calm Calm - N/A   Clear
12:55 PM 62.6 °F 44.6 °F 52% 30.11 in 10.0 mi NW 4.6 mph - N/A   Clear
1:15 PM 64.4 °F 44.6 °F 49% 30.11 in 10.0 mi NW 8.1 mph - N/A   Clear
1:35 PM 66.2 °F 46.4 °F 49% 30.10 in 10.0 mi West 6.9 mph - N/A   Clear
1:55 PM 66.2 °F 46.4 °F 49% 30.09 in 10.0 mi WNW 3.5 mph - N/A   Clear
2:15 PM 66.2 °F 46.4 °F 49% 30.08 in 10.0 mi NW 5.8 mph - N/A   Clear
2:35 PM 66.2 °F 46.4 °F 49% 30.06 in 10.0 mi NNW 9.2 mph - N/A   Clear
2:55 PM 68.0 °F 44.6 °F 43% 30.06 in 10.0 mi WSW 3.5 mph - N/A   Clear
3:15 PM 68.0 °F 46.4 °F 46% 30.05 in 10.0 mi WNW 5.8 mph - N/A   Clear
3:35 PM 68.0 °F 44.6 °F 43% 30.04 in 10.0 mi Calm Calm - N/A   Clear
3:55 PM 68.0 °F 44.6 °F 43% 30.03 in 10.0 mi Calm Calm - N/A   Clear
4:15 PM 68.0 °F 46.4 °F 46% 30.02 in 10.0 mi West 13.8 mph - N/A   Clear
4:35 PM 66.2 °F 46.4 °F 49% 30.02 in 10.0 mi West 13.8 mph 18.4 mph N/A   Clear
4:55 PM 66.2 °F 44.6 °F 46% 30.01 in 10.0 mi WSW 11.5 mph - N/A   Clear
5:15 PM 66.2 °F 44.6 °F 46% 30.01 in 10.0 mi WSW 13.8 mph - N/A   Clear
5:35 PM 64.4 °F 44.6 °F 49% 30.01 in 10.0 mi SW 11.5 mph - N/A   Clear
5:55 PM 64.4 °F 44.6 °F 49% 30.01 in 10.0 mi WSW 11.5 mph - N/A   Clear
6:15 PM 62.6 °F 44.6 °F 52% 30.00 in 10.0 mi WSW 9.2 mph - N/A   Clear
6:35 PM 60.8 °F 44.6 °F 55% 30.00 in 10.0 mi West 8.1 mph - N/A   Clear
6:55 PM 59.0 °F 44.6 °F 59% 30.00 in 10.0 mi SW 3.5 mph - N/A   Clear
7:15 PM 59.0 °F 44.6 °F 59% 30.00 in 10.0 mi Calm Calm - N/A   Clear
7:35 PM 57.2 °F 44.6 °F 63% 29.99 in 10.0 mi Calm Calm - N/A   Clear
7:55 PM 55.4 °F 44.6 °F 67% 29.99 in 10.0 mi SSE 3.5 mph - N/A   Clear
8:35 PM 55.4 °F 44.6 °F 67% 29.99 in 10.0 mi East 4.6 mph - N/A   Clear
8:55 PM 55.4 °F 44.6 °F 67% 30.00 in 10.0 mi ENE 4.6 mph - N/A   Clear
9:15 PM 51.8 °F 44.6 °F 76% 30.00 in 10.0 mi NNE 3.5 mph - N/A   Clear
9:35 PM 50.0 °F 44.6 °F 82% 30.00 in 10.0 mi Calm Calm - N/A   Clear
9:55 PM 50.0 °F 44.6 °F 82% 30.01 in 10.0 mi Calm Calm - N/A   Clear
10:15 PM 50.0 °F 44.6 °F 82% 30.00 in 10.0 mi SW 3.5 mph - N/A   Clear
10:35 PM 48.2 °F 44.6 °F 87% 30.01 in 10.0 mi Calm Calm - N/A   Clear
10:55 PM 48.2 °F 42.8 °F 82% 30.01 in 10.0 mi Calm Calm - N/A   Clear
11:15 PM 48.2 °F 44.6 °F 87% 30.01 in 10.0 mi Calm Calm - N/A   Clear
11:35 PM 48.2 °F 44.6 °F 87% 30.00 in 10.0 mi Calm Calm - N/A   Clear
11:55 PM 48.2 °F 44.6 °F 87% 30.00 in 10.0 mi Calm Calm - N/A   Clear